Airfield :
LOGIN :

Register | Disclaimer

   EN    FR    IT 

 










Legend :    VFR   Marginal VFR   IFR   Intensive IFR   Very Intensive IFR
Visi :
Ceiling :
>= 8 km
>= 3000ft
5 to 8 km
1000 to 3000 ft
1500m to 5 km
500 to 1000 ft
800 to 1500m
200 to 500 ft
< 800m
< 200 ft
Symbols :   Thunderstorms  Fog  Heavy snow  Heavy precipitations  Wind > 20 kt
SIGMETs :     Misc.  Thunderstorms  Icing  Turbulence  Mountain Waves  Volcanic Ashes






- Airport Elevation : 20 ft
- IATA code : DLM


LTBS - Dalaman

CURRENT METAR :
  • 271150Z 18014G24KT 9999 FEW025 BKN100 19/11 Q1015 NOSIG RMK RWY19 15010KT

EXPIRED METARs :
  • 271120Z 18013KT 150V210 9999 FEW025 BKN100 19/12 Q1015 NOSIG RMK RWY19 15011KT
  • 271050Z 17010KT 110V200 9999 FEW025 BKN100 19/11 Q1016 BECMG TL1120 16020G35KT
  • 271020Z 17011G21KT 140V210 9999 SCT025 BKN080 18/11 Q1016 NOSIG RMK RWY19 14016KT
  • 270950Z 17013G24KT 140V200 9999 SCT025 BKN080 18/10 Q1017 NOSIG RMK RWY19 14017KT
  • 270920Z 17017KT 9999 SCT025 BKN080 18/11 Q1017 NOSIG RMK RWY19 14019KT

TAF TAF LTBS
Valid from the 27 at 06:00 until the 28 at 06:00 UTC


270440Z 2706/2806 16020G35KT 9999 SCT025 BKN090
TEMPO 2706/2710 -SHRA BKN025 BKN090
TEMPO 2718/2722 SHRA BKN025 BKN090
BECMG 2720/2722 VRB02KT



MET'MAP, your aeronautical weather chart ! - Copyright ORBIFLY December 2007 - Disclaimer

ORBIFLY MET'MAP TEAM :

Programming & Development : Alexandra Zaïnal
Concept & original design : Baudouin d'Aumeries
Assistance for programming : Marc-Olivier Méhu
Technical & hardware support : Manuel Goepfert

Contact : metmap@orbifly.com




SOURCES & CREDITS :

   NOAA